Bolton, United Kingdom
Current Conditions -  °F | °C
As of 3:20 PM on Saturday 22 Nov 2014 (Local Time) from EGCC Reporting Station
Scattered Clouds Scattered Clouds  
Wind Chill: 54°   Ceiling: Unl
Heat Index: 54°   Visibility: 6mi
Dew Point: 48°   Wind: 6mph
Humidity: 82%   Direction: 190°S
Pressure: 29.85"   Gusts: NA
Location:  53.58°N, 2.43°W
Report Text: EGCC 221520Z 19005KT 9999 FEW018 SCT032 12/09 Q1011
Loading
Personal Weather Stations






























Interactive Weather Map New forecast layout! Learn more

10-Day Weather Forecast

Advertisements
Track Severe Weather on mobile